Manyberries, Canada
Current Conditions -  °F | °C
As of 5:00 PM on Tuesday 25 Nov 2014 (Local Time) from CYXH Reporting Station
Overcast Overcast  
Wind Chill: 19°   Ceiling: 1300
Heat Index: 27°   Visibility: 15mi
Dew Point: 25°   Wind: 7mph
Humidity: 93%   Direction: 250°WSW
Pressure: 30.13"   Gusts: NA
Location:  49.4°N, 110.7°W
Report Text: CYXH 260000Z 25006KT 15SM OVC013 M03/M04 A3013 RMK SC8 SLP232
Loading
Personal Weather Stations






























Interactive Weather Map New forecast layout! Learn more

10-Day Weather Forecast

Advertisements
Track Severe Weather on mobile